createdAt,value
2023-04-16T00:00:08.477Z,11.63
2023-04-16T00:03:13.846Z,11.07
2023-04-16T00:06:16.641Z,12.75
2023-04-16T00:09:19.108Z,14.77
2023-04-16T00:12:21.600Z,12.68
2023-04-16T00:15:23.939Z,12.95
2023-04-16T00:18:26.330Z,11.50
2023-04-16T00:21:28.875Z,13.23
2023-04-16T00:24:31.214Z,12.02
2023-04-16T00:27:34.294Z,12.88
2023-04-16T00:30:36.845Z,12.13
2023-04-16T00:33:39.520Z,10.50
2023-04-16T00:36:41.945Z,11.57
2023-04-16T00:39:44.367Z,12.25
2023-04-16T00:42:46.954Z,10.93
2023-04-16T00:45:49.443Z,11.70
2023-04-16T00:48:54.341Z,12.50
2023-04-16T00:51:56.779Z,10.80
2023-04-16T00:54:59.646Z,11.68
2023-04-16T00:58:02.088Z,11.00
2023-04-16T01:01:04.522Z,12.23
2023-04-16T01:04:07.367Z,11.77
2023-04-16T01:07:09.805Z,10.23
2023-04-16T01:10:12.880Z,7.82
2023-04-16T01:13:15.431Z,11.63
2023-04-16T01:16:18.511Z,11.98
2023-04-16T01:19:20.982Z,13.18
2023-04-16T01:22:23.316Z,14.13
2023-04-16T01:25:25.707Z,12.35
2023-04-16T01:28:28.210Z,12.68
2023-04-16T01:31:30.529Z,12.80
2023-04-16T01:34:56.198Z,13.77
2023-04-16T01:37:58.661Z,12.80
2023-04-16T01:41:02.174Z,13.43
2023-04-16T01:44:04.836Z,12.07
2023-04-16T01:47:07.256Z,13.50
2023-04-16T01:50:10.147Z,12.98
2023-04-16T01:53:12.522Z,13.88
2023-04-16T01:56:14.844Z,14.25
2023-04-16T01:59:17.258Z,13.05
2023-04-16T02:02:19.652Z,12.82
2023-04-16T02:05:22.096Z,14.20
2023-04-16T02:08:24.412Z,15.00
2023-04-16T02:11:26.888Z,13.02
2023-04-16T02:14:30.843Z,10.03
2023-04-16T02:17:33.346Z,13.43
2023-04-16T02:20:47.355Z,13.00
2023-04-16T02:23:52.104Z,15.30
2023-04-16T02:27:01.048Z,13.27
2023-04-16T02:30:04.543Z,14.80
2023-04-16T02:33:10.771Z,12.93
2023-04-16T02:36:15.660Z,13.27
2023-04-16T02:39:18.069Z,14.02
2023-04-16T02:42:20.704Z,14.35
2023-04-16T02:45:23.332Z,19.38
2023-04-16T02:48:25.872Z,15.57
2023-04-16T02:51:28.270Z,14.70
2023-04-16T02:54:30.598Z,16.83
2023-04-16T02:57:33.432Z,12.65
2023-04-16T03:00:35.827Z,14.45
2023-04-16T03:03:38.199Z,14.02
2023-04-16T03:06:40.646Z,14.05
2023-04-16T03:09:43.395Z,13.75
2023-04-16T03:12:45.837Z,14.60
2023-04-16T03:15:51.140Z,13.88
2023-04-16T03:18:53.781Z,12.77
2023-04-16T03:21:56.339Z,13.95
2023-04-16T03:24:58.909Z,13.35
2023-04-16T03:28:03.839Z,13.73
2023-04-16T03:31:06.540Z,12.48
2023-04-16T03:37:15.565Z,11.57
2023-04-16T03:40:18.146Z,12.48
2023-04-16T03:43:20.767Z,13.15
2023-04-16T03:46:23.477Z,12.40
2023-04-16T03:49:25.967Z,13.57
2023-04-16T03:52:28.651Z,12.25
2023-04-16T03:55:31.963Z,12.00
2023-04-16T03:58:34.415Z,12.93
2023-04-16T04:01:36.877Z,13.07
2023-04-16T04:04:41.257Z,11.32
2023-04-16T04:07:45.286Z,12.63
2023-04-16T04:10:51.214Z,18.67
2023-04-16T04:13:55.515Z,15.82
2023-04-16T04:16:57.955Z,16.83
2023-04-16T04:20:01.779Z,13.50
2023-04-16T04:23:06.419Z,13.02
2023-04-16T04:26:09.352Z,11.50
2023-04-16T04:29:12.027Z,10.73
2023-04-16T04:32:14.712Z,11.23
2023-04-16T04:35:17.618Z,11.43
2023-04-16T04:38:22.132Z,10.35
2023-04-16T04:41:27.140Z,9.75
2023-04-16T04:47:32.532Z,9.77
2023-04-16T04:50:34.836Z,9.30
2023-04-16T04:53:38.369Z,8.88
2023-04-16T04:56:41.348Z,11.98
2023-04-16T04:59:43.693Z,13.43
2023-04-16T05:02:47.787Z,13.70
2023-04-16T05:05:50.156Z,12.20
2023-04-16T05:08:52.655Z,12.07
2023-04-16T05:11:55.027Z,12.75
2023-04-16T05:14:57.575Z,12.82
2023-04-16T05:18:00.146Z,12.38
2023-04-16T05:21:02.779Z,14.10
2023-04-16T05:24:05.638Z,11.10
2023-04-16T05:27:07.974Z,16.70
2023-04-16T05:30:10.909Z,18.60
2023-04-16T05:33:13.322Z,16.08
2023-04-16T05:36:15.927Z,23.85
2023-04-16T05:39:18.881Z,20.38
2023-04-16T05:42:21.356Z,15.82
2023-04-16T05:45:24.482Z,16.02
2023-04-16T05:48:27.517Z,14.80
2023-04-16T05:51:30.026Z,13.70
2023-04-16T05:54:32.478Z,12.32
2023-04-16T05:57:34.920Z,13.00
2023-04-16T06:00:37.397Z,12.18
2023-04-16T06:03:39.876Z,11.05
2023-04-16T06:06:42.493Z,12.82
2023-04-16T06:09:45.827Z,11.48
2023-04-16T06:12:48.201Z,9.10
2023-04-16T06:15:50.802Z,11.63
2023-04-16T06:18:53.229Z,10.77
2023-04-16T06:21:55.940Z,10.43
2023-04-16T06:24:58.354Z,10.68
2023-04-16T06:28:00.786Z,11.00
2023-04-16T06:31:03.267Z,10.68
2023-04-16T06:34:05.867Z,9.70
2023-04-16T06:37:10.516Z,11.43
2023-04-16T06:40:13.541Z,19.33
2023-04-16T06:43:16.167Z,10.77
2023-04-16T06:46:18.599Z,12.40
2023-04-16T06:49:22.165Z,10.90
2023-04-16T06:52:24.475Z,10.02
2023-04-16T06:55:27.118Z,8.75
2023-04-16T06:58:29.643Z,8.60
2023-04-16T07:01:32.106Z,8.48
2023-04-16T07:04:34.801Z,7.85
2023-04-16T07:07:37.216Z,10.27
2023-04-16T07:10:39.585Z,7.82
2023-04-16T07:13:41.901Z,26.17
2023-04-16T07:16:44.420Z,20.38
2023-04-16T07:19:47.192Z,14.85
2023-04-16T07:22:50.145Z,12.95
2023-04-16T07:25:53.219Z,11.38
2023-04-16T07:28:55.662Z,9.75
2023-04-16T07:31:58.686Z,6.95
2023-04-16T07:35:01.379Z,4.70
2023-04-16T07:38:06.115Z,5.75
2023-04-16T07:41:08.864Z,5.10
2023-04-16T07:44:11.262Z,5.70
2023-04-16T07:47:13.863Z,6.43
2023-04-16T07:50:16.513Z,5.43
2023-04-16T07:53:18.972Z,4.53
2023-04-16T07:56:21.652Z,4.07
2023-04-16T07:59:24.634Z,6.00
2023-04-16T08:02:27.780Z,8.77
2023-04-16T08:05:30.685Z,5.43
2023-04-16T08:08:33.029Z,8.15
2023-04-16T08:11:35.476Z,4.60
2023-04-16T08:14:37.833Z,4.88
2023-04-16T08:17:40.170Z,3.50
2023-04-16T08:20:43.383Z,3.80
2023-04-16T08:23:45.813Z,4.82
2023-04-16T08:26:48.858Z,3.17
2023-04-16T08:29:51.294Z,3.47
2023-04-16T08:32:55.517Z,3.70
2023-04-16T08:36:00.192Z,3.22
2023-04-16T08:39:04.993Z,3.05
2023-04-16T08:42:13.783Z,3.80
2023-04-16T08:45:18.390Z,3.83
2023-04-16T08:48:22.159Z,9.95
2023-04-16T08:51:24.720Z,4.90
2023-04-16T08:54:40.289Z,3.65
2023-04-16T08:58:00.835Z,9.80
2023-04-16T09:01:06.866Z,5.80
2023-04-16T09:04:10.025Z,6.03
2023-04-16T09:07:12.908Z,6.00
2023-04-16T09:10:16.573Z,6.32
2023-04-16T09:13:20.641Z,4.28
2023-04-16T09:16:23.276Z,10.68
2023-04-16T09:19:25.671Z,7.80
2023-04-16T09:22:28.225Z,4.00
2023-04-16T09:25:38.659Z,11.38
2023-04-16T09:28:48.789Z,7.85
2023-04-16T09:32:03.800Z,2.95
2023-04-16T09:35:06.372Z,2.58
2023-04-16T09:38:08.724Z,2.20
2023-04-16T09:41:11.109Z,4.38
2023-04-16T09:44:13.727Z,1.80
2023-04-16T09:47:16.136Z,3.42
2023-04-16T09:50:20.190Z,4.72
2023-04-16T09:53:27.087Z,9.07
2023-04-16T09:56:30.576Z,5.95
2023-04-16T09:59:34.393Z,2.53
2023-04-16T10:02:39.420Z,4.68
2023-04-16T10:05:42.692Z,2.97
2023-04-16T10:08:49.668Z,5.97
2023-04-16T10:11:52.738Z,3.03
2023-04-16T10:14:55.190Z,1.83
2023-04-16T10:17:58.442Z,2.55
2023-04-16T10:21:01.078Z,3.47
2023-04-16T10:24:04.575Z,2.88
2023-04-16T10:27:07.319Z,3.72
2023-04-16T10:30:10.798Z,4.78
2023-04-16T10:33:13.387Z,2.45
2023-04-16T10:36:17.835Z,3.42
2023-04-16T10:39:22.713Z,3.22
2023-04-16T10:42:26.349Z,4.40
2023-04-16T10:45:33.094Z,2.58
2023-04-16T10:48:48.754Z,2.60
2023-04-16T10:52:03.308Z,2.03
2023-04-16T10:55:06.396Z,3.20
2023-04-16T10:58:27.983Z,2.55
2023-04-16T11:01:37.158Z,5.13
2023-04-16T11:04:41.063Z,4.28
2023-04-16T11:07:49.756Z,3.22
2023-04-16T11:10:52.668Z,3.17
2023-04-16T11:13:56.904Z,3.65
2023-04-16T11:20:02.185Z,5.57
2023-04-16T11:23:04.669Z,4.35
2023-04-16T11:26:07.071Z,4.65
2023-04-16T11:29:15.708Z,5.93
2023-04-16T11:32:22.852Z,3.60
2023-04-16T11:35:25.366Z,3.85
2023-04-16T11:38:37.607Z,4.97
2023-04-16T11:41:44.248Z,3.90
2023-04-16T11:44:46.635Z,4.13
2023-04-16T11:47:55.634Z,3.03
2023-04-16T11:50:59.025Z,4.15
2023-04-16T11:54:02.775Z,5.72
2023-04-16T11:57:05.687Z,4.70
2023-04-16T12:00:14.171Z,3.50
2023-04-16T12:03:16.882Z,3.20
2023-04-16T12:06:19.295Z,4.63
2023-04-16T12:09:26.149Z,3.47
2023-04-16T12:12:31.690Z,4.07
2023-04-16T12:15:57.094Z,3.92
2023-04-16T12:22:06.845Z,3.28
2023-04-16T12:25:13.496Z,3.85
2023-04-16T12:28:16.713Z,4.32
2023-04-16T12:31:20.522Z,4.50
2023-04-16T12:34:29.084Z,6.97
2023-04-16T12:37:45.558Z,4.10
2023-04-16T12:40:48.190Z,4.50
2023-04-16T12:43:50.702Z,4.35
2023-04-16T12:46:53.047Z,4.43
2023-04-16T12:49:58.029Z,4.63
2023-04-16T12:53:00.582Z,5.25
2023-04-16T12:56:02.955Z,4.85
2023-04-16T12:59:05.452Z,4.85
2023-04-16T13:02:07.954Z,4.97
2023-04-16T13:05:10.684Z,4.90
2023-04-16T13:08:13.061Z,4.80
2023-04-16T13:11:15.824Z,4.95
2023-04-16T13:14:18.227Z,4.80
2023-04-16T13:17:20.611Z,4.35
2023-04-16T13:20:24.512Z,4.40
2023-04-16T13:23:27.309Z,5.72
2023-04-16T13:26:29.717Z,4.82
2023-04-16T13:29:32.417Z,4.78
2023-04-16T13:32:34.821Z,4.82
2023-04-16T13:35:37.440Z,5.25
2023-04-16T13:38:39.873Z,4.85
2023-04-16T13:41:42.434Z,4.40
2023-04-16T13:44:48.904Z,5.00
2023-04-16T13:47:51.407Z,5.10
2023-04-16T13:50:53.807Z,5.57
2023-04-16T13:53:56.371Z,4.35
2023-04-16T13:56:58.748Z,29.08
2023-04-16T14:00:01.222Z,10.75
2023-04-16T14:03:06.062Z,4.15
2023-04-16T14:06:08.759Z,4.55
2023-04-16T14:09:12.113Z,5.93
2023-04-16T14:12:14.753Z,29.83
2023-04-16T14:15:17.178Z,33.83
2023-04-16T14:18:19.580Z,7.80
2023-04-16T14:21:22.023Z,4.00
2023-04-16T14:24:24.491Z,5.93
2023-04-16T14:27:27.620Z,5.53
2023-04-16T14:30:30.374Z,5.70
2023-04-16T14:33:33.122Z,5.60
2023-04-16T14:36:36.672Z,4.78
2023-04-16T14:39:39.449Z,3.42
2023-04-16T14:42:42.401Z,5.50
2023-04-16T14:45:45.048Z,4.82
2023-04-16T14:48:48.231Z,4.70
2023-04-16T14:51:52.442Z,5.57
2023-04-16T14:54:56.042Z,5.75
2023-04-16T14:57:59.812Z,33.97
2023-04-16T15:01:02.650Z,4.53
2023-04-16T15:04:05.390Z,4.88
2023-04-16T15:07:10.225Z,4.28
2023-04-16T15:10:13.372Z,4.05
2023-04-16T15:13:16.577Z,4.38
2023-04-16T15:16:20.254Z,5.82
2023-04-16T15:19:23.213Z,6.80
2023-04-16T15:22:25.826Z,5.90
2023-04-16T15:25:28.643Z,7.28
2023-04-16T15:28:31.781Z,7.20
2023-04-16T15:31:34.326Z,6.83
2023-04-16T15:34:36.697Z,9.38
2023-04-16T15:37:39.364Z,9.50
2023-04-16T15:40:41.826Z,13.13
2023-04-16T15:43:45.166Z,10.10
2023-04-16T15:46:47.772Z,9.38
2023-04-16T15:49:50.359Z,7.60
2023-04-16T15:52:52.781Z,8.07
2023-04-16T15:55:55.542Z,7.70
2023-04-16T15:58:57.949Z,7.78
2023-04-16T16:02:01.282Z,7.40
2023-04-16T16:05:04.843Z,7.25
2023-04-16T16:08:07.389Z,6.03
2023-04-16T16:11:09.880Z,6.88
2023-04-16T16:14:12.391Z,8.65
2023-04-16T16:17:15.077Z,8.00
2023-04-16T16:20:17.439Z,7.75
2023-04-16T16:23:19.896Z,7.80
2023-04-16T16:26:23.153Z,8.35
2023-04-16T16:29:25.786Z,5.43
2023-04-16T16:32:28.309Z,7.47
2023-04-16T16:35:32.776Z,7.82
2023-04-16T16:38:35.262Z,9.82
2023-04-16T16:41:42.158Z,6.10
2023-04-16T16:44:46.979Z,6.50
2023-04-16T16:47:49.434Z,5.25
2023-04-16T16:50:52.111Z,6.45
2023-04-16T16:53:54.559Z,7.97
2023-04-16T16:56:57.120Z,5.93
2023-04-16T16:59:59.897Z,64.65
2023-04-16T17:03:02.459Z,48.28
2023-04-16T17:06:05.327Z,56.67
2023-04-16T17:09:08.057Z,25.95
2023-04-16T17:12:10.868Z,14.80
2023-04-16T17:15:13.408Z,12.00
2023-04-16T17:18:16.299Z,12.00
2023-04-16T17:21:19.012Z,11.63
2023-04-16T17:24:21.641Z,8.85
2023-04-16T17:27:24.434Z,8.90
2023-04-16T17:30:28.221Z,13.32
2023-04-16T17:33:30.828Z,10.75
2023-04-16T17:36:33.617Z,10.27
2023-04-16T17:39:36.091Z,10.80
2023-04-16T17:42:39.541Z,7.25
2023-04-16T17:45:42.414Z,5.25
2023-04-16T17:48:45.017Z,4.88
2023-04-16T17:51:47.705Z,5.82
2023-04-16T17:54:50.525Z,5.10
2023-04-16T17:57:53.051Z,4.93
2023-04-16T18:00:56.591Z,5.07
2023-04-16T18:03:59.470Z,3.78
2023-04-16T18:07:02.089Z,4.72
2023-04-16T18:10:05.249Z,4.30
2023-04-16T18:13:07.787Z,4.57
2023-04-16T18:16:17.233Z,4.95
2023-04-16T18:19:19.949Z,5.78
2023-04-16T18:22:22.378Z,5.18
2023-04-16T18:25:33.964Z,5.00
2023-04-16T18:28:38.296Z,5.55
2023-04-16T18:31:41.139Z,3.83
2023-04-16T18:34:44.363Z,4.65
2023-04-16T18:37:47.608Z,4.70
2023-04-16T18:40:50.103Z,6.27
2023-04-16T18:43:52.599Z,6.70
2023-04-16T18:46:55.106Z,4.93
2023-04-16T18:49:57.562Z,4.68
2023-04-16T18:53:00.041Z,4.55
2023-04-16T18:56:02.634Z,4.40
2023-04-16T18:59:05.081Z,4.25
2023-04-16T19:02:07.761Z,4.25
2023-04-16T19:05:11.409Z,5.00
2023-04-16T19:08:14.074Z,4.00
2023-04-16T19:11:16.418Z,7.00
2023-04-16T19:14:19.021Z,5.00
2023-04-16T19:17:21.411Z,5.80
2023-04-16T19:20:23.868Z,6.90
2023-04-16T19:23:26.364Z,7.53
2023-04-16T19:26:28.739Z,5.63
2023-04-16T19:29:34.783Z,6.75
2023-04-16T19:32:37.510Z,5.50
2023-04-16T19:35:43.403Z,4.93
2023-04-16T19:38:45.908Z,5.63
2023-04-16T19:41:48.236Z,4.55
2023-04-16T19:44:50.885Z,4.53
2023-04-16T19:47:53.665Z,4.90
2023-04-16T19:50:56.287Z,4.95
2023-04-16T19:53:59.132Z,4.88
2023-04-16T19:57:01.681Z,4.88
2023-04-16T20:00:05.960Z,4.43
2023-04-16T20:03:08.563Z,4.60
2023-04-16T20:06:11.158Z,4.55
2023-04-16T20:09:13.807Z,4.30
2023-04-16T20:12:16.418Z,4.80
2023-04-16T20:15:19.323Z,5.00
2023-04-16T20:18:22.352Z,4.38
2023-04-16T20:21:25.350Z,5.10
2023-04-16T20:24:31.120Z,5.72
2023-04-16T20:27:34.389Z,5.68
2023-04-16T20:30:39.994Z,5.57
2023-04-16T20:33:42.416Z,5.93
2023-04-16T20:36:45.371Z,5.88
2023-04-16T20:39:50.266Z,5.65
2023-04-16T20:42:52.723Z,5.68
2023-04-16T20:45:55.039Z,6.65
2023-04-16T20:48:57.435Z,8.25
2023-04-16T20:51:59.842Z,8.57
2023-04-16T20:55:03.828Z,9.25
2023-04-16T20:58:06.567Z,9.95
2023-04-16T21:01:08.921Z,9.90
2023-04-16T21:04:11.425Z,9.52
2023-04-16T21:07:14.190Z,9.85
2023-04-16T21:10:20.373Z,10.73
2023-04-16T21:13:23.045Z,10.32
2023-04-16T21:16:25.546Z,11.15
2023-04-16T21:19:27.870Z,11.20
2023-04-16T21:22:30.285Z,11.52
2023-04-16T21:25:33.562Z,11.57
2023-04-16T21:28:36.196Z,11.67
2023-04-16T21:31:38.483Z,11.95
2023-04-16T21:34:40.937Z,11.68
2023-04-16T21:37:43.251Z,14.32
2023-04-16T21:40:51.064Z,11.75
2023-04-16T21:43:53.414Z,12.23
2023-04-16T21:46:55.816Z,11.85
2023-04-16T21:49:58.142Z,12.13
2023-04-16T21:53:00.576Z,11.07
2023-04-16T21:56:03.847Z,11.73
2023-04-16T21:59:06.535Z,12.23
2023-04-16T22:02:09.009Z,11.05
2023-04-16T22:05:12.265Z,12.18
2023-04-16T22:08:24.188Z,9.77
2023-04-16T22:11:28.410Z,12.18
2023-04-16T22:14:32.027Z,10.75
2023-04-16T22:17:34.880Z,11.43
2023-04-16T22:20:39.342Z,10.30
2023-04-16T22:23:41.755Z,11.00
2023-04-16T22:26:44.053Z,10.30
2023-04-16T22:29:46.467Z,9.38
2023-04-16T22:32:48.945Z,9.20
2023-04-16T22:35:51.292Z,9.23
2023-04-16T22:38:53.848Z,8.32
2023-04-16T22:41:56.256Z,8.98
2023-04-16T22:44:58.586Z,9.38
2023-04-16T22:48:01.221Z,8.52
2023-04-16T22:51:04.458Z,7.30
2023-04-16T22:54:07.951Z,6.60
2023-04-16T22:57:10.319Z,8.63
2023-04-16T23:00:18.013Z,8.18
2023-04-16T23:03:20.557Z,8.18
2023-04-16T23:06:22.941Z,7.90
2023-04-16T23:09:25.659Z,7.80
2023-04-16T23:12:27.916Z,8.98
2023-04-16T23:15:30.546Z,8.70
2023-04-16T23:18:32.790Z,8.57
2023-04-16T23:21:35.130Z,8.57
2023-04-16T23:24:37.395Z,9.25
2023-04-16T23:27:39.749Z,7.93
2023-04-16T23:30:42.282Z,8.02
2023-04-16T23:33:44.589Z,8.43
2023-04-16T23:36:46.881Z,9.35
2023-04-16T23:39:49.188Z,8.98
2023-04-16T23:42:51.507Z,9.70
2023-04-16T23:45:53.882Z,10.00
2023-04-16T23:48:56.314Z,10.25
2023-04-16T23:51:58.740Z,10.77
2023-04-16T23:55:01.084Z,10.10
2023-04-16T23:58:03.375Z,11.00
